Ice Star — OUJK2 — position and weather

sailwx.info

Track history (hours):
 
Tides and Currents Weather Stations Pressure Air Temp Water Temp Dewpoint Dewpoint Depression Visibility Wind Speed Wind Dir Waves Ship Positions

Ice Star

Last reported at 2016-Sep-27 10:28 UTC. Time now 2016-Sep-27 13:54 UTC.
Position N 37°41' E 016°12'.

Length 367 m; draft 14.5 m.

Type: Ship (hazmat cat A). MMSI: 220596000.

Date/timePositionNaut miles runAvg speedWind from/ knotsBaromVisibWave heightAir tempDewpointWater temp
2016-Sep-27 10:28N 37°41' E 016°12'49 4.9
2016-Sep-27 00:31N 38°28' E 015°55'0 0.0
2016-Sep-26 08:28N 38°28' E 015°55'12 2.0
2016-Sep-26 02:33N 38°19' E 015°45'1414.5
2016-Sep-26 01:33N 38°06' E 015°36'1313.5
2016-Sep-26 00:33N 37°53' E 015°39'4012.5
2016-Sep-25 21:19N 38°06' E 016°27'40111.2
2016-Sep-24 09:30N 44°28' E 013°43'56 1.9
2016-Sep-23 03:30N 45°17' E 014°22'2215.8
2016-Sep-23 02:06N 44°55' E 014°14'1120.1
2016-Sep-23 01:33N 44°46' E 014°04'2020.3
2016-Sep-23 00:33N 44°40' E 013°37'2020.4
2016-Sep-22 23:34N 44°55' E 013°17'4715.6
2016-Sep-22 20:33N 45°39' E 013°39'5 0.6
2016-Sep-22 12:33N 45°38' E 013°46'0 0.0
2016-Sep-22 04:33N 45°38' E 013°46'0 0.0
2016-Sep-22 03:30N 45°38' E 013°46'0 0.0
2016-Sep-22 00:30N 45°38' E 013°46'0 0.0
2016-Sep-21 23:33N 45°38' E 013°46'0 0.0
2016-Sep-21 22:33N 45°38' E 013°46'0 0.0
2016-Sep-21 19:24N 45°38' E 013°46'0 0.0
2016-Sep-21 16:30N 45°38' E 013°46'0 0.0
2016-Sep-21 09:33N 45°38' E 013°46'0 0.0
2016-Sep-21 08:33N 45°38' E 013°46'0 0.0
2016-Sep-21 05:30N 45°38' E 013°46'5 2.5
2016-Sep-21 03:33N 45°38' E 013°39'5 4.9
2016-Sep-21 02:33N 45°33' E 013°43'1 0.1
2016-Sep-20 17:27N 45°33' E 013°44'0 0.0
2016-Sep-20 14:27N 45°33' E 013°44'0 0.0
2016-Sep-20 13:33N 45°33' E 013°44'0 0.0
2016-Sep-20 10:33N 45°33' E 013°44'0 0.0
2016-Sep-20 08:30N 45°33' E 013°44'0 0.0
2016-Sep-20 07:30N 45°33' E 013°44'0 0.0
2016-Sep-20 06:30N 45°33' E 013°44'0 0.0
2016-Sep-20 02:30N 45°33' E 013°44'0 0.0
2016-Sep-19 23:33N 45°33' E 013°44'0 0.0
2016-Sep-19 19:30N 45°33' E 013°44'0 0.0
2016-Sep-19 18:33N 45°33' E 013°44'0 0.0
2016-Sep-19 16:30N 45°33' E 013°44'0 0.0
2016-Sep-19 14:33N 45°33' E 013°44'0 0.0
2016-Sep-19 13:33N 45°33' E 013°44'0 0.0
2016-Sep-19 12:33N 45°33' E 013°44'0 0.0
2016-Sep-19 11:24N 45°33' E 013°44'0 0.0
2016-Sep-19 09:18N 45°33' E 013°44'0 0.0
2016-Sep-19 07:30N 45°33' E 013°44'0 0.0
2016-Sep-19 06:33N 45°33' E 013°44'0 0.1
2016-Sep-19 03:33N 45°33' E 013°43'7 7.0
2016-Sep-19 02:33N 45°35' E 013°34'2914.5
2016-Sep-19 00:33N 45°09' E 013°17'  
Track history (hours):
 
Tides and Currents Weather Stations Pressure Air Temp Water Temp Dewpoint Dewpoint Depression Visibility Wind Speed Wind Dir Waves Ship Positions

Ice Star

Last reported at 2016-Sep-27 10:28 UTC. Time now 2016-Sep-27 13:54 UTC.
Position N 37°41' E 016°12'.

Length 367 m; draft 14.5 m.

Type: Ship (hazmat cat A). MMSI: 220596000.

Date/timePositionNaut miles runAvg speedWind from/ knotsBaromVisibWave heightAir tempDewpointWater temp
2016-Sep-27 10:28N 37°41' E 016°12'49 4.9
2016-Sep-27 00:31N 38°28' E 015°55'0 0.0
2016-Sep-26 08:28N 38°28' E 015°55'12 2.0
2016-Sep-26 02:33N 38°19' E 015°45'1414.5
2016-Sep-26 01:33N 38°06' E 015°36'1313.5
2016-Sep-26 00:33N 37°53' E 015°39'4012.5
2016-Sep-25 21:19N 38°06' E 016°27'40111.2
2016-Sep-24 09:30N 44°28' E 013°43'56 1.9
2016-Sep-23 03:30N 45°17' E 014°22'2215.8
2016-Sep-23 02:06N 44°55' E 014°14'1120.1
2016-Sep-23 01:33N 44°46' E 014°04'2020.3
2016-Sep-23 00:33N 44°40' E 013°37'2020.4
2016-Sep-22 23:34N 44°55' E 013°17'4715.6
2016-Sep-22 20:33N 45°39' E 013°39'5 0.6
2016-Sep-22 12:33N 45°38' E 013°46'0 0.0
2016-Sep-22 04:33N 45°38' E 013°46'0 0.0
2016-Sep-22 03:30N 45°38' E 013°46'0 0.0
2016-Sep-22 00:30N 45°38' E 013°46'0 0.0
2016-Sep-21 23:33N 45°38' E 013°46'0 0.0
2016-Sep-21 22:33N 45°38' E 013°46'0 0.0
2016-Sep-21 19:24N 45°38' E 013°46'0 0.0
2016-Sep-21 16:30N 45°38' E 013°46'0 0.0
2016-Sep-21 09:33N 45°38' E 013°46'0 0.0
2016-Sep-21 08:33N 45°38' E 013°46'0 0.0
2016-Sep-21 05:30N 45°38' E 013°46'5 2.5
2016-Sep-21 03:33N 45°38' E 013°39'5 4.9
2016-Sep-21 02:33N 45°33' E 013°43'1 0.1
2016-Sep-20 17:27N 45°33' E 013°44'0 0.0
2016-Sep-20 14:27N 45°33' E 013°44'0 0.0
2016-Sep-20 13:33N 45°33' E 013°44'0 0.0
2016-Sep-20 10:33N 45°33' E 013°44'0 0.0
2016-Sep-20 08:30N 45°33' E 013°44'0 0.0
2016-Sep-20 07:30N 45°33' E 013°44'0 0.0
2016-Sep-20 06:30N 45°33' E 013°44'0 0.0
2016-Sep-20 02:30N 45°33' E 013°44'0 0.0
2016-Sep-19 23:33N 45°33' E 013°44'0 0.0
2016-Sep-19 19:30N 45°33' E 013°44'0 0.0
2016-Sep-19 18:33N 45°33' E 013°44'0 0.0
2016-Sep-19 16:30N 45°33' E 013°44'0 0.0
2016-Sep-19 14:33N 45°33' E 013°44'0 0.0
2016-Sep-19 13:33N 45°33' E 013°44'0 0.0
2016-Sep-19 12:33N 45°33' E 013°44'0 0.0
2016-Sep-19 11:24N 45°33' E 013°44'0 0.0
2016-Sep-19 09:18N 45°33' E 013°44'0 0.0
2016-Sep-19 07:30N 45°33' E 013°44'0 0.0
2016-Sep-19 06:33N 45°33' E 013°44'0 0.1
2016-Sep-19 03:33N 45°33' E 013°43'7 7.0
2016-Sep-19 02:33N 45°35' E 013°34'2914.5
2016-Sep-19 00:33N 45°09' E 013°17'  

Dump ship's entire track history